アテネ国際空港の過去48時間の天気

アテネ国際空港 (Athens Eleftherios Venizelos International Airport)

現在時刻: 9/16 06:05 EEST (9/16 03:05 UTC) 以下の時間は現地時間です。

過去48時間のMETAR気象情報
時間 風向 風速(m/s) 視程 気温(℃) 湿度(%) 気圧(hPa) 天気現象
16 05:20 北北東 7 10km以上 22 43 1018
16 04:50 北北東 9 10km以上 22 43 1018
16 04:20 北北東 8 10km以上 22 46 1018
16 03:50 8 10km以上 23 44 1018
16 03:20 北北東 5 10km以上 23 44 1019
16 02:50 北北東 5 10km以上 22 50 1019
16 02:20 北北東 6 10km以上 22 53 1019
16 01:50 北北東 8 10km以上 23 47 1019
16 01:20 北北東 7 10km以上 23 50 1019
16 00:50 北北東 6 10km以上 23 50 1019
16 00:20 北北東 6 10km以上 23 50 1019
15 23:50 5 10km以上 23 50 1020
15 23:20 北北東 7 10km以上 23 50 1020
15 22:50 6 10km以上 24 47 1020
15 22:20 7 10km以上 24 44 1020
15 21:50 5 10km以上 24 44 1020
15 21:20 6 10km以上 24 44 1020
15 20:50 6 10km以上 24 44 1019
15 20:20 4 10km以上 25 41 1019
15 19:50 5 10km以上 25 44 1019
15 19:20 6 10km以上 25 44 1019
15 18:50 9 10km以上 25 47 1019
15 18:20 9 10km以上 26 45 1020
15 17:50 北北東 10 10km以上 26 45 1020
15 17:20 北東 12 10km以上 27 42 1019
15 16:50 北東 12 10km以上 27 42 1020
15 16:20 北東 12 10km以上 27 42 1020
15 15:50 北北東 12 10km以上 28 40 1020
15 15:20 北北東 11 10km以上 27 42 1020
15 14:50 北東 12 10km以上 28 35 1020
15 14:20 11 10km以上 28 32 1020
15 13:50 13 10km以上 28 32 1021
15 13:20 11 10km以上 27 30 1021
15 12:50 10 10km以上 27 30 1021
15 12:20 11 10km以上 28 28 1021
15 11:50 11 10km以上 27 30 1021
15 11:20 10 10km以上 27 28 1021
15 10:50 11 10km以上 26 30 1021
15 10:20 北北東 11 10km以上 26 28 1020
15 09:50 9 10km以上 26 32 1020
15 09:20 10 10km以上 25 34 1020
15 08:50 9 10km以上 25 32 1020
15 08:20 10 10km以上 24 34 1020
15 07:50 10 10km以上 24 31 1019
15 07:20 8 10km以上 24 31 1019
15 06:50 9 10km以上 23 31 1019
15 06:20 北北東 10 10km以上 23 33 1019
15 05:50 北北東 10 10km以上 23 33 1018
15 05:20 北北東 11 10km以上 24 31 1019
15 04:50 北北東 10 10km以上 24 31 1019
15 04:20 北北東 8 10km以上 24 31 1019
15 03:50 北北東 8 10km以上 24 31 1019
15 03:20 北北東 7 10km以上 24 29 1019
15 02:50 北北東 9 10km以上 24 31 1019
15 02:20 北北東 9 10km以上 24 34 1019
15 01:50 北北東 6 10km以上 24 34 1020
15 01:20 6 10km以上 24 34 1020
15 00:50 北北東 7 10km以上 24 34 1019
15 00:20 北北東 7 10km以上 24 34 1019
14 23:50 北東 9 10km以上 25 32 1020
14 23:20 北北東 9 10km以上 24 36 1020
14 22:50 北北東 8 10km以上 25 34 1019
14 22:20 7 10km以上 25 32 1019
14 21:50 7 10km以上 26 26 1019
14 21:20 6 10km以上 25 26 1019
14 20:50 北北西 4 10km以上 26 24 1019
14 20:20 7 10km以上 26 23 1018
14 19:50 北北西 6 10km以上 26 24 1018
14 19:20 8 10km以上 26 24 1017
14 18:50 9 10km以上 26 24 1017
14 18:20 12 10km以上 27 21 1017
14 17:50 12 10km以上 27 23 1017
14 17:20 北北東 13 10km以上 28 23 1017
14 16:50 北北東 14 10km以上 28 20 1018
14 16:20 北北東 15 10km以上 28 22 1018
14 15:50 北北東 13 10km以上 28 22 1018
14 15:20 北北東 15 10km以上 28 22 1018
14 14:50 13 10km以上 29 20 1018
14 14:20 13 10km以上 29 20 1018
14 13:50 14 10km以上 28 23 1018
14 13:20 14 10km以上 28 23 1018
14 12:50 13 10km以上 28 25 1019
14 12:20 13 10km以上 27 26 1019
14 11:50 13 10km以上 27 26 1019
14 11:20 北北東 13 10km以上 26 32 1019
14 10:50 北北東 13 10km以上 26 37 1020
14 10:20 8 10km以上 25 36 1020
14 09:50 11 10km以上 25 36 1018
14 09:20 11 10km以上 25 32 1018
14 08:50 11 10km以上 25 34 1018
14 08:20 12 10km以上 24 36 1017
14 07:50 12 10km以上 23 41 1017
14 07:20 12 10km以上 23 38 1017
14 06:50 11 10km以上 23 41 1017
14 06:20 北北東 12 10km以上 23 38 1018
LGAV 160220Z 02014KT CAVOK 22/09 Q1018 NOSIG
LGAV 160150Z 02017KT CAVOK 22/09 Q1018 NOSIG
LGAV 160120Z 02015KT CAVOK 22/10 Q1018 NOSIG
LGAV 160050Z 01015KT CAVOK 23/10 Q1018 NOSIG
LGAV 160020Z 02010G20KT CAVOK 23/10 Q1019 NOSIG
LGAV 152350Z 02009G19KT CAVOK 22/11 Q1019 NOSIG
LGAV 152320Z 03012G22KT CAVOK 22/12 Q1019 NOSIG
LGAV 152250Z 03015KT CAVOK 23/11 Q1019 NOSIG
LGAV 152220Z 02013KT CAVOK 23/12 Q1019 NOSIG
LGAV 152150Z 02012KT CAVOK 23/12 Q1019 NOSIG
LGAV 152120Z 02012KT CAVOK 23/12 Q1019 NOSIG
LGAV 152050Z 01009KT CAVOK 23/12 Q1020 NOSIG
LGAV 152020Z 02014KT CAVOK 23/12 Q1020 NOSIG
LGAV 151950Z 01011G21KT CAVOK 24/12 Q1020 NOSIG
LGAV 151920Z 35013KT CAVOK 24/11 Q1020 NOSIG
LGAV 151850Z 35010KT CAVOK 24/11 Q1020 NOSIG
LGAV 151820Z 35012KT 310V010 CAVOK 24/11 Q1020 NOSIG
LGAV 151750Z 35012KT CAVOK 24/11 Q1019 NOSIG
LGAV 151720Z 35007G17KT CAVOK 25/11 Q1019 NOSIG
LGAV 151650Z 35010G20KT 310V020 CAVOK 25/12 Q1019 NOSIG
LGAV 151620Z 36012KT CAVOK 25/12 Q1019 NOSIG
LGAV 151550Z 01017KT 9999 FEW030 25/13 Q1019 NOSIG
LGAV 151520Z 01018G28KT 9999 FEW030 26/13 Q1020 NOSIG
LGAV 151450Z 02019KT 9999 FEW030 26/13 Q1020 NOSIG
LGAV 151420Z 04024KT 9999 FEW030 27/13 Q1019 NOSIG
LGAV 151350Z 04023G33KT 9999 FEW030 27/13 Q1020 NOSIG
LGAV 151320Z 04023G33KT 9999 FEW030 27/13 Q1020 NOSIG
LGAV 151250Z 03023KT 9999 FEW030 28/13 Q1020 NOSIG
LGAV 151220Z 03021G31KT 9999 FEW030 27/13 Q1020 NOSIG
LGAV 151150Z 05024G34KT 9999 FEW030 28/11 Q1020 NOSIG
LGAV 151120Z 36022G32KT CAVOK 28/10 Q1020 NOSIG
LGAV 151050Z 01026G38KT CAVOK 28/10 Q1021 NOSIG
LGAV 151020Z 01021G37KT 330V030 CAVOK 27/08 Q1021 NOSIG
LGAV 150950Z 01020KT CAVOK 27/08 Q1021 NOSIG
LGAV 150920Z 36021G33KT CAVOK 28/08 Q1021 NOSIG
LGAV 150850Z 36021G34KT CAVOK 27/08 Q1021 NOSIG
LGAV 150820Z 01020G32KT 330V030 CAVOK 27/07 Q1021 NOSIG
LGAV 150750Z 01021G32KT CAVOK 26/07 Q1021 NOSIG
LGAV 150720Z 02021G31KT CAVOK 26/06 Q1020 NOSIG
LGAV 150650Z 01018G28KT CAVOK 26/08 Q1020 NOSIG
LGAV 150620Z 36019G31KT CAVOK 25/08 Q1020 NOSIG
LGAV 150550Z 01018G33KT CAVOK 25/07 Q1020 NOSIG
LGAV 150520Z 36019G29KT CAVOK 24/07 Q1020 NOSIG
LGAV 150450Z 36020G30KT CAVOK 24/06 Q1019 NOSIG
LGAV 150420Z 35016KT CAVOK 24/06 Q1019 NOSIG
LGAV 150350Z 36017G30KT CAVOK 23/05 Q1019 NOSIG
LGAV 150320Z 02020G30KT CAVOK 23/06 Q1019 NOSIG
LGAV 150250Z 02020G30KT CAVOK 23/06 Q1018 NOSIG
LGAV 150220Z 02021KT CAVOK 24/06 Q1019 NOSIG
LGAV 150150Z 02019KT CAVOK 24/06 Q1019 NOSIG
LGAV 150120Z 02015KT CAVOK 24/06 Q1019 NOSIG
LGAV 150050Z 02016G26KT CAVOK 24/06 Q1019 NOSIG
LGAV 150020Z 02013KT CAVOK 24/05 Q1019 NOSIG
LGAV 142350Z 02017KT CAVOK 24/06 Q1019 NOSIG
LGAV 142320Z 02017KT CAVOK 24/07 Q1019 NOSIG
LGAV 142250Z 02012KT CAVOK 24/07 Q1020 NOSIG
LGAV 142220Z 01011G21KT CAVOK 24/07 Q1020 NOSIG
LGAV 142150Z 02014KT CAVOK 24/07 Q1019 NOSIG
LGAV 142120Z 02014KT CAVOK 24/07 Q1019 NOSIG
LGAV 142050Z 04017KT CAVOK 25/07 Q1020 NOSIG
LGAV 142020Z 03017KT CAVOK 24/08 Q1020 NOSIG
LGAV 141950Z 03016KT CAVOK 25/08 Q1019 NOSIG
LGAV 141920Z 01013KT CAVOK 25/07 Q1019 NOSIG
LGAV 141850Z 36013KT CAVOK 26/05 Q1019 NOSIG
LGAV 141820Z 36011KT CAVOK 25/04 Q1019 NOSIG
LGAV 141750Z 34008KT CAVOK 26/04 Q1019 NOSIG
LGAV 141720Z 35013KT 320V020 CAVOK 26/03 Q1018 NOSIG
LGAV 141650Z 34011G21KT 320V020 CAVOK 26/04 Q1018 NOSIG
LGAV 141620Z 35016G26KT CAVOK 26/04 Q1017 NOSIG
LGAV 141550Z 35018G28KT CAVOK 26/04 Q1017 NOSIG
LGAV 141520Z 35024G35KT CAVOK 27/03 Q1017 NOSIG
LGAV 141450Z 36024G35KT CAVOK 27/04 Q1017 NOSIG
LGAV 141420Z 02026G36KT CAVOK 28/05 Q1017 NOSIG
LGAV 141350Z 02027G39KT CAVOK 28/03 Q1018 NOSIG
LGAV 141320Z 02030G40KT CAVOK 28/04 Q1018 NOSIG
LGAV 141250Z 03026G36KT CAVOK 28/04 Q1018 NOSIG
LGAV 141220Z 03030G43KT CAVOK 28/04 Q1018 NOSIG
LGAV 141150Z 36025G44KT CAVOK 29/04 Q1018 NOSIG
LGAV 141120Z 36025G36KT CAVOK 29/04 Q1018 NOSIG
LGAV 141050Z 01028G38KT CAVOK 28/05 Q1018 NOSIG
LGAV 141020Z 01028G39KT CAVOK 28/05 Q1018 NOSIG
LGAV 140950Z 01026G40KT CAVOK 28/06 Q1019 NOSIG
LGAV 140920Z 01026G38KT CAVOK 27/06 Q1019 NOSIG
LGAV 140850Z 01026G37KT CAVOK 27/06 Q1019 NOSIG
LGAV 140820Z 02026G36KT CAVOK 26/08 Q1019 NOSIG
LGAV 140750Z 02025G35KT CAVOK 26/10 Q1020 NOSIG
LGAV 140720Z 01016G26KT CAVOK 25/09 Q1020 NOSIG
LGAV 140650Z 01021G31KT CAVOK 25/09 Q1018 NOSIG
LGAV 140620Z 36021G36KT CAVOK 25/07 Q1018 NOSIG
LGAV 140550Z 01022G39KT CAVOK 25/08 Q1018 NOSIG
LGAV 140520Z 01023G33KT CAVOK 24/08 Q1017 NOSIG
LGAV 140450Z 01024G36KT CAVOK 23/09 Q1017 NOSIG
LGAV 140420Z 01023G34KT CAVOK 23/08 Q1017 NOSIG
LGAV 140350Z 36022G34KT 9999 FEW030 23/09 Q1017 NOSIG
LGAV 140320Z 03024G34KT 9999 FEW030 23/08 Q1018 NOSIG